sensor_id;sensor_type;location;lat;lon;timestamp;pressure;altitude;pressure_sealevel;temperature;humidity
28911;BME280;16028;42.642;23.310;2022-09-03T00:00:05;93995.91;;;17.12;100.00
28911;BME280;16028;42.642;23.310;2022-09-03T00:02:38;93998.38;;;17.13;100.00
28911;BME280;16028;42.642;23.310;2022-09-03T00:05:14;94009.28;;;17.10;100.00
28911;BME280;16028;42.642;23.310;2022-09-03T00:07:48;94008.06;;;17.13;100.00
28911;BME280;16028;42.642;23.310;2022-09-03T00:10:21;94013.34;;;17.13;100.00
28911;BME280;16028;42.642;23.310;2022-09-03T00:12:53;94006.06;;;17.15;100.00
28911;BME280;16028;42.642;23.310;2022-09-03T00:15:22;94009.50;;;17.15;100.00
28911;BME280;16028;42.642;23.310;2022-09-03T00:17:53;94003.00;;;17.11;100.00
28911;BME280;16028;42.642;23.310;2022-09-03T00:20:26;94003.81;;;17.12;100.00
28911;BME280;16028;42.642;23.310;2022-09-03T00:22:58;94004.44;;;17.14;100.00
28911;BME280;16028;42.642;23.310;2022-09-03T00:25:29;94007.69;;;17.16;100.00
28911;BME280;16028;42.642;23.310;2022-09-03T00:28:02;94005.44;;;17.13;100.00
28911;BME280;16028;42.642;23.310;2022-09-03T00:30:31;93998.31;;;17.07;100.00
28911;BME280;16028;42.642;23.310;2022-09-03T00:33:03;94008.06;;;17.13;100.00
28911;BME280;16028;42.642;23.310;2022-09-03T00:35:40;93998.00;;;17.16;100.00
28911;BME280;16028;42.642;23.310;2022-09-03T00:38:08;94001.38;;;17.10;100.00
28911;BME280;16028;42.642;23.310;2022-09-03T00:40:47;94001.00;;;17.13;100.00
28911;BME280;16028;42.642;23.310;2022-09-03T00:43:29;94003.19;;;17.10;100.00
28911;BME280;16028;42.642;23.310;2022-09-03T00:46:05;94001.72;;;17.07;100.00
28911;BME280;16028;42.642;23.310;2022-09-03T00:48:47;93990.06;;;17.10;100.00
28911;BME280;16028;42.642;23.310;2022-09-03T00:51:22;93999.53;;;17.11;100.00
28911;BME280;16028;42.642;23.310;2022-09-03T00:53:59;94003.63;;;17.13;100.00
28911;BME280;16028;42.642;23.310;2022-09-03T00:56:37;94004.81;;;17.11;100.00
28911;BME280;16028;42.642;23.310;2022-09-03T00:59:20;94002.00;;;17.12;100.00
28911;BME280;16028;42.642;23.310;2022-09-03T01:02:00;94002.38;;;17.09;100.00
28911;BME280;16028;42.642;23.310;2022-09-03T01:04:37;94003.75;;;17.05;100.00
28911;BME280;16028;42.642;23.310;2022-09-03T01:07:17;94003.56;;;17.07;100.00
28911;BME280;16028;42.642;23.310;2022-09-03T01:09:52;93998.31;;;17.07;100.00
28911;BME280;16028;42.642;23.310;2022-09-03T01:12:31;93997.19;;;17.16;100.00
28911;BME280;16028;42.642;23.310;2022-09-03T01:15:07;94007.06;;;17.14;100.00
28911;BME280;16028;42.642;23.310;2022-09-03T01:17:50;93995.91;;;17.12;100.00
28911;BME280;16028;42.642;23.310;2022-09-03T01:20:28;94001.56;;;17.09;100.00
28911;BME280;16028;42.642;23.310;2022-09-03T01:26:19;94003.28;;;17.02;100.00
28911;BME280;16028;42.642;23.310;2022-09-03T01:28:58;94012.00;;;17.02;100.00
28911;BME280;16028;42.642;23.310;2022-09-03T01:31:34;94018.38;;;16.93;100.00
28911;BME280;16028;42.642;23.310;2022-09-03T01:34:12;94023.44;;;16.94;100.00
28911;BME280;16028;42.642;23.310;2022-09-03T01:36:47;94024.00;;;16.90;100.00
28911;BME280;16028;42.642;23.310;2022-09-03T01:39:22;94027.06;;;16.93;100.00
28911;BME280;16028;42.642;23.310;2022-09-03T01:41:58;94032.94;;;16.96;100.00
28911;BME280;16028;42.642;23.310;2022-09-03T01:44:52;94033.69;;;16.89;100.00
28911;BME280;16028;42.642;23.310;2022-09-03T01:47:37;94018.06;;;16.81;100.00
28911;BME280;16028;42.642;23.310;2022-09-03T01:50:23;94014.84;;;16.86;100.00
28911;BME280;16028;42.642;23.310;2022-09-03T01:52:54;94011.97;;;16.81;100.00
28911;BME280;16028;42.642;23.310;2022-09-03T01:55:29;94008.91;;;16.77;100.00
28911;BME280;16028;42.642;23.310;2022-09-03T01:58:01;94012.16;;;16.79;100.00
28911;BME280;16028;42.642;23.310;2022-09-03T02:00:33;94005.34;;;16.85;100.00
28911;BME280;16028;42.642;23.310;2022-09-03T02:03:04;94010.41;;;16.86;100.00
28911;BME280;16028;42.642;23.310;2022-09-03T02:05:32;94008.16;;;16.83;100.00
28911;BME280;16028;42.642;23.310;2022-09-03T02:08:01;94010.19;;;16.81;100.00
28911;BME280;16028;42.642;23.310;2022-09-03T02:10:32;94006.28;;;16.77;100.00
28911;BME280;16028;42.642;23.310;2022-09-03T02:13:04;94014.97;;;16.78;100.00
28911;BME280;16028;42.642;23.310;2022-09-03T02:15:34;94020.84;;;16.80;100.00
28911;BME280;16028;42.642;23.310;2022-09-03T02:18:04;94026.47;;;16.77;100.00
28911;BME280;16028;42.642;23.310;2022-09-03T02:20:32;94020.31;;;16.70;100.00
28911;BME280;16028;42.642;23.310;2022-09-03T02:22:59;94018.34;;;16.72;100.00
28911;BME280;16028;42.642;23.310;2022-09-03T02:25:31;94015.28;;;16.68;100.00
28911;BME280;16028;42.642;23.310;2022-09-03T02:27:59;94016.78;;;16.63;100.00
28911;BME280;16028;42.642;23.310;2022-09-03T02:30:26;94026.53;;;16.62;100.00
28911;BME280;16028;42.642;23.310;2022-09-03T02:32:54;94031.78;;;16.62;100.00
28911;BME280;16028;42.642;23.310;2022-09-03T02:35:21;94037.66;;;16.64;100.00
28911;BME280;16028;42.642;23.310;2022-09-03T02:37:48;94036.66;;;16.65;100.00
28911;BME280;16028;42.642;23.310;2022-09-03T02:40:15;94034.66;;;16.67;100.00
28911;BME280;16028;42.642;23.310;2022-09-03T02:42:41;94029.41;;;16.67;100.00
28911;BME280;16028;42.642;23.310;2022-09-03T02:45:16;94034.81;;;16.66;100.00
28911;BME280;16028;42.642;23.310;2022-09-03T02:47:49;94032.19;;;16.66;100.00
28911;BME280;16028;42.642;23.310;2022-09-03T02:50:19;94039.91;;;16.67;100.00
28911;BME280;16028;42.642;23.310;2022-09-03T02:52:45;94049.78;;;16.65;100.00
28911;BME280;16028;42.642;23.310;2022-09-03T02:55:13;94043.50;;;16.66;100.00
28911;BME280;16028;42.642;23.310;2022-09-03T02:57:39;94046.16;;;16.66;100.00
28911;BME280;16028;42.642;23.310;2022-09-03T03:00:07;94047.59;;;16.69;100.00
28911;BME280;16028;42.642;23.310;2022-09-03T03:02:34;94040.72;;;16.68;100.00
28911;BME280;16028;42.642;23.310;2022-09-03T03:05:02;94041.91;;;16.65;100.00
28911;BME280;16028;42.642;23.310;2022-09-03T03:07:33;94040.63;;;16.61;100.00
28911;BME280;16028;42.642;23.310;2022-09-03T03:10:02;94039.00;;;16.60;100.00
28911;BME280;16028;42.642;23.310;2022-09-03T03:12:29;94034.41;;;16.62;100.00
28911;BME280;16028;42.642;23.310;2022-09-03T03:14:56;94037.81;;;16.63;100.00
28911;BME280;16028;42.642;23.310;2022-09-03T03:17:22;94030.94;;;16.62;100.00
28911;BME280;16028;42.642;23.310;2022-09-03T03:19:50;94029.94;;;16.63;100.00
28911;BME280;16028;42.642;23.310;2022-09-03T03:22:17;94032.56;;;16.63;100.00
28911;BME280;16028;42.642;23.310;2022-09-03T03:24:45;94034.56;;;16.61;100.00
28911;BME280;16028;42.642;23.310;2022-09-03T03:27:14;94031.78;;;16.62;100.00
28911;BME280;16028;42.642;23.310;2022-09-03T03:29:41;94033.94;;;16.59;100.00
28911;BME280;16028;42.642;23.310;2022-09-03T03:32:08;94034.94;;;16.58;100.00
28911;BME280;16028;42.642;23.310;2022-09-03T03:34:34;94048.75;;;16.52;100.00
28911;BME280;16028;42.642;23.310;2022-09-03T03:37:02;94041.81;;;16.59;100.00
28911;BME280;16028;42.642;23.310;2022-09-03T03:39:28;94044.50;;;16.51;100.00
28911;BME280;16028;42.642;23.310;2022-09-03T03:41:56;94039.63;;;16.48;100.00
28911;BME280;16028;42.642;23.310;2022-09-03T03:44:23;94045.69;;;16.48;100.00
28911;BME280;16028;42.642;23.310;2022-09-03T03:46:50;94039.91;;;16.53;100.00
28911;BME280;16028;42.642;23.310;2022-09-03T03:49:17;94044.97;;;16.54;100.00
28911;BME280;16028;42.642;23.310;2022-09-03T03:51:44;94037.72;;;16.56;100.00
28911;BME280;16028;42.642;23.310;2022-09-03T03:54:11;94043.72;;;16.65;100.00
28911;BME280;16028;42.642;23.310;2022-09-03T03:56:38;94044.91;;;16.62;100.00
28911;BME280;16028;42.642;23.310;2022-09-03T03:59:06;94051.16;;;16.61;100.00
28911;BME280;16028;42.642;23.310;2022-09-03T04:01:33;94046.22;;;16.73;100.00
28911;BME280;16028;42.642;23.310;2022-09-03T04:03:59;94050.66;;;16.72;100.00
28911;BME280;16028;42.642;23.310;2022-09-03T04:06:26;94046.06;;;16.74;100.00
28911;BME280;16028;42.642;23.310;2022-09-03T04:08:54;94044.78;;;16.70;100.00
28911;BME280;16028;42.642;23.310;2022-09-03T04:11:22;94048.31;;;16.63;100.00
28911;BME280;16028;42.642;23.310;2022-09-03T04:13:49;94042.00;;;16.57;100.00
28911;BME280;16028;42.642;23.310;2022-09-03T04:16:19;94042.97;;;16.56;100.00
28911;BME280;16028;42.642;23.310;2022-09-03T04:18:46;94039.25;;;16.51;100.00
28911;BME280;16028;42.642;23.310;2022-09-03T04:21:16;94041.38;;;16.55;100.00
28911;BME280;16028;42.642;23.310;2022-09-03T04:23:44;94036.56;;;16.59;100.00
28911;BME280;16028;42.642;23.310;2022-09-03T04:26:13;94043.44;;;16.60;100.00
28911;BME280;16028;42.642;23.310;2022-09-03T04:28:40;94056.75;;;16.58;100.00
28911;BME280;16028;42.642;23.310;2022-09-03T04:31:09;94052.13;;;16.60;100.00
28911;BME280;16028;42.642;23.310;2022-09-03T04:33:38;94047.34;;;16.64;100.00
28911;BME280;16028;42.642;23.310;2022-09-03T04:36:07;94061.91;;;16.66;100.00
28911;BME280;16028;42.642;23.310;2022-09-03T04:38:35;94066.63;;;16.71;100.00
28911;BME280;16028;42.642;23.310;2022-09-03T04:41:02;94067.44;;;16.71;100.00
28911;BME280;16028;42.642;23.310;2022-09-03T04:43:29;94077.13;;;16.71;100.00
28911;BME280;16028;42.642;23.310;2022-09-03T04:45:57;94067.59;;;16.70;100.00
28911;BME280;16028;42.642;23.310;2022-09-03T04:48:24;94073.16;;;16.75;100.00
28911;BME280;16028;42.642;23.310;2022-09-03T04:50:53;94082.47;;;16.77;100.00
28911;BME280;16028;42.642;23.310;2022-09-03T04:53:20;94080.91;;;16.83;100.00
28911;BME280;16028;42.642;23.310;2022-09-03T04:55:47;94088.19;;;16.81;100.00
28911;BME280;16028;42.642;23.310;2022-09-03T04:58:15;94087.97;;;16.82;100.00
28911;BME280;16028;42.642;23.310;2022-09-03T05:00:42;94090.34;;;16.77;100.00
28911;BME280;16028;42.642;23.310;2022-09-03T05:03:09;94091.53;;;16.75;100.00
28911;BME280;16028;42.642;23.310;2022-09-03T05:05:36;94095.31;;;16.72;100.00
28911;BME280;16028;42.642;23.310;2022-09-03T05:08:04;94098.75;;;16.73;100.00
28911;BME280;16028;42.642;23.310;2022-09-03T05:10:31;94097.78;;;16.74;100.00
28911;BME280;16028;42.642;23.310;2022-09-03T05:13:07;94102.41;;;16.72;100.00
28911;BME280;16028;42.642;23.310;2022-09-03T05:15:34;94099.13;;;16.70;100.00
28911;BME280;16028;42.642;23.310;2022-09-03T05:18:01;94100.56;;;16.72;100.00
28911;BME280;16028;42.642;23.310;2022-09-03T05:20:29;94091.91;;;16.72;100.00
28911;BME280;16028;42.642;23.310;2022-09-03T05:23:00;94092.69;;;16.72;100.00
28911;BME280;16028;42.642;23.310;2022-09-03T05:25:32;94088.63;;;16.70;100.00
28911;BME280;16028;42.642;23.310;2022-09-03T05:28:01;94090.53;;;16.76;100.00
28911;BME280;16028;42.642;23.310;2022-09-03T05:30:32;94096.13;;;16.73;100.00
28911;BME280;16028;42.642;23.310;2022-09-03T05:32:58;94094.16;;;16.75;100.00
28911;BME280;16028;42.642;23.310;2022-09-03T05:35:25;94098.59;;;16.74;100.00
28911;BME280;16028;42.642;23.310;2022-09-03T05:37:55;94101.41;;;16.73;100.00
28911;BME280;16028;42.642;23.310;2022-09-03T05:40:23;94103.66;;;16.76;100.00
28911;BME280;16028;42.642;23.310;2022-09-03T05:42:55;94107.19;;;16.83;100.00
28911;BME280;16028;42.642;23.310;2022-09-03T05:45:25;94100.66;;;16.93;99.24
28911;BME280;16028;42.642;23.310;2022-09-03T05:47:53;94104.03;;;16.87;99.21
28911;BME280;16028;42.642;23.310;2022-09-03T05:50:20;94112.81;;;16.80;100.00
28911;BME280;16028;42.642;23.310;2022-09-03T05:52:47;94118.44;;;16.77;100.00
28911;BME280;16028;42.642;23.310;2022-09-03T05:55:14;94110.72;;;16.75;100.00
28911;BME280;16028;42.642;23.310;2022-09-03T05:57:41;94108.75;;;16.77;100.00
28911;BME280;16028;42.642;23.310;2022-09-03T06:00:10;94115.59;;;16.78;100.00
28911;BME280;16028;42.642;23.310;2022-09-03T06:02:37;94113.25;;;16.83;100.00
28911;BME280;16028;42.642;23.310;2022-09-03T06:05:07;94115.31;;;16.88;98.96
28911;BME280;16028;42.642;23.310;2022-09-03T06:07:34;94121.31;;;16.82;99.56
28911;BME280;16028;42.642;23.310;2022-09-03T06:10:01;94116.88;;;16.82;100.00
28911;BME280;16028;42.642;23.310;2022-09-03T06:12:32;94130.09;;;16.89;100.00
28911;BME280;16028;42.642;23.310;2022-09-03T06:14:59;94126.75;;;16.95;99.50
28911;BME280;16028;42.642;23.310;2022-09-03T06:17:27;94126.81;;;17.02;99.53
28911;BME280;16028;42.642;23.310;2022-09-03T06:19:54;94121.28;;;17.11;98.15
28911;BME280;16028;42.642;23.310;2022-09-03T06:22:21;94119.91;;;17.15;97.89
28911;BME280;16028;42.642;23.310;2022-09-03T06:24:49;94123.44;;;17.22;95.78
28911;BME280;16028;42.642;23.310;2022-09-03T06:27:16;94121.06;;;17.27;96.90
28911;BME280;16028;42.642;23.310;2022-09-03T06:29:45;94127.38;;;17.33;95.39
28911;BME280;16028;42.642;23.310;2022-09-03T06:32:12;94137.47;;;17.29;94.82
28911;BME280;16028;42.642;23.310;2022-09-03T06:34:41;94137.66;;;17.28;96.20
28911;BME280;16028;42.642;23.310;2022-09-03T06:37:07;94143.16;;;17.33;97.97
28911;BME280;16028;42.642;23.310;2022-09-03T06:39:34;94137.97;;;17.39;95.58
28911;BME280;16028;42.642;23.310;2022-09-03T06:42:01;94131.88;;;17.54;93.25
28911;BME280;16028;42.642;23.310;2022-09-03T06:44:28;94132.78;;;17.61;93.82
28911;BME280;16028;42.642;23.310;2022-09-03T06:46:54;94137.94;;;17.69;93.70
28911;BME280;16028;42.642;23.310;2022-09-03T06:49:25;94141.44;;;17.76;91.66
28911;BME280;16028;42.642;23.310;2022-09-03T06:51:53;94140.44;;;17.77;92.48
28911;BME280;16028;42.642;23.310;2022-09-03T06:54:20;94138.00;;;17.75;93.30
28911;BME280;16028;42.642;23.310;2022-09-03T06:56:49;94140.94;;;17.87;92.67
28911;BME280;16028;42.642;23.310;2022-09-03T06:59:16;94140.91;;;17.80;94.81
28911;BME280;16028;42.642;23.310;2022-09-03T07:01:43;94140.75;;;17.88;93.53
28911;BME280;16028;42.642;23.310;2022-09-03T07:04:10;94149.31;;;17.97;92.92
28911;BME280;16028;42.642;23.310;2022-09-03T07:06:38;94149.75;;;18.01;91.60
28911;BME280;16028;42.642;23.310;2022-09-03T07:09:09;94145.09;;;17.96;91.96
28911;BME280;16028;42.642;23.310;2022-09-03T07:11:37;94154.16;;;17.93;92.71
28911;BME280;16028;42.642;23.310;2022-09-03T07:14:10;94157.16;;;18.12;91.80
28911;BME280;16028;42.642;23.310;2022-09-03T07:16:37;94150.38;;;18.24;89.87
28911;BME280;16028;42.642;23.310;2022-09-03T07:19:06;94155.81;;;18.22;88.86
28911;BME280;16028;42.642;23.310;2022-09-03T07:21:34;94157.59;;;18.15;87.84
28911;BME280;16028;42.642;23.310;2022-09-03T07:24:02;94150.50;;;18.16;88.29
28911;BME280;16028;42.642;23.310;2022-09-03T07:26:32;94157.22;;;18.18;88.57
28911;BME280;16028;42.642;23.310;2022-09-03T07:28:59;94166.69;;;18.13;88.53
28911;BME280;16028;42.642;23.310;2022-09-03T07:31:28;94163.19;;;18.06;90.54
28911;BME280;16028;42.642;23.310;2022-09-03T07:33:56;94169.31;;;18.13;90.67
28911;BME280;16028;42.642;23.310;2022-09-03T07:36:25;94172.81;;;18.20;90.73
28911;BME280;16028;42.642;23.310;2022-09-03T07:38:54;94168.88;;;18.30;90.22
28911;BME280;16028;42.642;23.310;2022-09-03T07:41:22;94171.78;;;18.42;91.09
28911;BME280;16028;42.642;23.310;2022-09-03T07:43:52;94168.38;;;18.48;89.74
28911;BME280;16028;42.642;23.310;2022-09-03T07:46:20;94167.25;;;18.57;89.01
28911;BME280;16028;42.642;23.310;2022-09-03T07:48:48;94172.41;;;18.65;88.60
28911;BME280;16028;42.642;23.310;2022-09-03T07:51:17;94170.03;;;18.77;86.79
28911;BME280;16028;42.642;23.310;2022-09-03T07:53:44;94175.25;;;18.70;87.39
28911;BME280;16028;42.642;23.310;2022-09-03T07:56:12;94176.91;;;18.71;87.39
28911;BME280;16028;42.642;23.310;2022-09-03T07:58:39;94175.31;;;18.77;86.83
28911;BME280;16028;42.642;23.310;2022-09-03T08:01:09;94180.00;;;18.81;84.41
28911;BME280;16028;42.642;23.310;2022-09-03T08:03:37;94182.59;;;18.75;85.21
28911;BME280;16028;42.642;23.310;2022-09-03T08:06:06;94178.66;;;18.64;87.05
28911;BME280;16028;42.642;23.310;2022-09-03T08:08:34;94177.38;;;18.81;86.19
28911;BME280;16028;42.642;23.310;2022-09-03T08:11:08;94186.28;;;18.80;85.77
28911;BME280;16028;42.642;23.310;2022-09-03T08:13:37;94189.31;;;18.77;84.67
28911;BME280;16028;42.642;23.310;2022-09-03T08:16:05;94186.63;;;18.71;86.02
28911;BME280;16028;42.642;23.310;2022-09-03T08:18:35;94181.59;;;18.76;86.31
28911;BME280;16028;42.642;23.310;2022-09-03T08:21:05;94182.03;;;18.86;86.13
28911;BME280;16028;42.642;23.310;2022-09-03T08:23:35;94184.06;;;18.84;85.06
28911;BME280;16028;42.642;23.310;2022-09-03T08:26:02;94186.91;;;18.82;85.70
28911;BME280;16028;42.642;23.310;2022-09-03T08:28:29;94181.47;;;18.90;86.37
28911;BME280;16028;42.642;23.310;2022-09-03T08:31:03;94182.94;;;18.99;83.17
28911;BME280;16028;42.642;23.310;2022-09-03T08:33:30;94181.88;;;18.87;83.64
28911;BME280;16028;42.642;23.310;2022-09-03T08:36:09;94184.69;;;18.86;84.92
28911;BME280;16028;42.642;23.310;2022-09-03T08:38:41;94181.25;;;18.85;85.55
28911;BME280;16028;42.642;23.310;2022-09-03T08:41:16;94184.53;;;18.94;84.60
28911;BME280;16028;42.642;23.310;2022-09-03T08:44:21;94167.91;;;18.93;84.49
28911;BME280;16028;42.642;23.310;2022-09-03T08:47:07;94175.91;;;19.07;83.52
28911;BME280;16028;42.642;23.310;2022-09-03T08:50:04;94165.34;;;19.07;83.02
28911;BME280;16028;42.642;23.310;2022-09-03T08:53:05;94179.31;;;19.00;83.58
28911;BME280;16028;42.642;23.310;2022-09-03T08:55:53;94187.63;;;18.97;85.55
28911;BME280;16028;42.642;23.310;2022-09-03T08:58:22;94178.31;;;19.08;83.84
28911;BME280;16028;42.642;23.310;2022-09-03T09:00:54;94185.66;;;19.13;83.81
28911;BME280;16028;42.642;23.310;2022-09-03T09:03:36;94187.06;;;19.09;84.18
28911;BME280;16028;42.642;23.310;2022-09-03T09:06:13;94188.31;;;19.13;84.86
28911;BME280;16028;42.642;23.310;2022-09-03T09:08:53;94191.16;;;19.18;85.34
28911;BME280;16028;42.642;23.310;2022-09-03T09:11:36;94187.78;;;19.30;84.72
28911;BME280;16028;42.642;23.310;2022-09-03T09:14:11;94190.09;;;19.40;83.22
28911;BME280;16028;42.642;23.310;2022-09-03T09:17:03;94188.44;;;19.39;81.95
28911;BME280;16028;42.642;23.310;2022-09-03T09:20:11;94185.38;;;19.35;82.72
28911;BME280;16028;42.642;23.310;2022-09-03T09:23:17;94189.44;;;19.38;83.78
28911;BME280;16028;42.642;23.310;2022-09-03T09:26:33;94189.81;;;19.35;84.04
28911;BME280;16028;42.642;23.310;2022-09-03T09:29:11;94195.81;;;19.50;82.48
28911;BME280;16028;42.642;23.310;2022-09-03T09:32:18;94190.09;;;19.46;82.93
28911;BME280;16028;42.642;23.310;2022-09-03T09:35:17;94186.31;;;19.56;83.12
28911;BME280;16028;42.642;23.310;2022-09-03T09:38:10;94189.13;;;19.54;82.03
28911;BME280;16028;42.642;23.310;2022-09-03T09:40:39;94184.88;;;19.60;82.93
28911;BME280;16028;42.642;23.310;2022-09-03T09:43:11;94198.91;;;19.67;82.88
28911;BME280;16028;42.642;23.310;2022-09-03T09:45:41;94189.41;;;19.85;81.11
28911;BME280;16028;42.642;23.310;2022-09-03T09:48:17;94190.25;;;19.86;80.71
28911;BME280;16028;42.642;23.310;2022-09-03T09:50:45;94192.47;;;19.89;81.89
28911;BME280;16028;42.642;23.310;2022-09-03T09:53:12;94187.03;;;20.03;80.13
28911;BME280;16028;42.642;23.310;2022-09-03T09:55:53;94195.56;;;19.99;82.18
28911;BME280;16028;42.642;23.310;2022-09-03T09:58:23;94190.28;;;20.05;81.29
28911;BME280;16028;42.642;23.310;2022-09-03T10:01:00;94191.94;;;20.13;79.55
28911;BME280;16028;42.642;23.310;2022-09-03T10:03:31;94196.41;;;20.19;79.37
28911;BME280;16028;42.642;23.310;2022-09-03T10:06:05;94197.22;;;20.20;80.18
28911;BME280;16028;42.642;23.310;2022-09-03T10:08:51;94193.38;;;20.22;81.21
28911;BME280;16028;42.642;23.310;2022-09-03T10:11:20;94190.97;;;20.34;78.86
28911;BME280;16028;42.642;23.310;2022-09-03T10:13:51;94195.00;;;20.30;81.13
28911;BME280;16028;42.642;23.310;2022-09-03T10:16:26;94182.22;;;20.33;81.33
28911;BME280;16028;42.642;23.310;2022-09-03T10:19:00;94182.63;;;20.37;79.05
28911;BME280;16028;42.642;23.310;2022-09-03T10:21:37;94186.50;;;20.34;77.77
28911;BME280;16028;42.642;23.310;2022-09-03T10:24:29;94187.50;;;20.27;78.07
28911;BME280;16028;42.642;23.310;2022-09-03T10:27:05;94174.63;;;20.11;78.08
28911;BME280;16028;42.642;23.310;2022-09-03T10:29:35;94181.34;;;20.06;80.45
28911;BME280;16028;42.642;23.310;2022-09-03T10:32:13;94181.38;;;20.13;80.93
28911;BME280;16028;42.642;23.310;2022-09-03T10:34:52;94187.88;;;20.24;79.88
28911;BME280;16028;42.642;23.310;2022-09-03T10:37:29;94179.75;;;20.25;79.07
28911;BME280;16028;42.642;23.310;2022-09-03T10:40:14;94186.09;;;20.37;80.24
28911;BME280;16028;42.642;23.310;2022-09-03T10:42:52;94184.03;;;20.52;77.60
28911;BME280;16028;42.642;23.310;2022-09-03T10:45:33;94177.16;;;20.51;77.76
28911;BME280;16028;42.642;23.310;2022-09-03T10:48:24;94180.81;;;20.50;78.14
28911;BME280;16028;42.642;23.310;2022-09-03T10:50:55;94182.03;;;20.54;78.56
28911;BME280;16028;42.642;23.310;2022-09-03T10:53:41;94184.25;;;20.64;80.53
28911;BME280;16028;42.642;23.310;2022-09-03T10:56:18;94178.56;;;20.80;76.34
28911;BME280;16028;42.642;23.310;2022-09-03T10:58:55;94185.03;;;20.84;77.15
28911;BME280;16028;42.642;23.310;2022-09-03T11:01:34;94176.28;;;21.10;74.26
28911;BME280;16028;42.642;23.310;2022-09-03T11:04:20;94178.88;;;21.23;73.24
28911;BME280;16028;42.642;23.310;2022-09-03T11:06:53;94177.66;;;21.26;72.91
28911;BME280;16028;42.642;23.310;2022-09-03T11:09:23;94171.59;;;21.19;73.50
28911;BME280;16028;42.642;23.310;2022-09-03T11:11:55;94171.53;;;21.32;71.24
28911;BME280;16028;42.642;23.310;2022-09-03T11:14:31;94175.00;;;21.26;72.52
28911;BME280;16028;42.642;23.310;2022-09-03T11:17:08;94183.56;;;21.28;75.35
28911;BME280;16028;42.642;23.310;2022-09-03T11:19:44;94179.69;;;21.30;74.92
28911;BME280;16028;42.642;23.310;2022-09-03T11:22:13;94179.44;;;21.38;77.10
28911;BME280;16028;42.642;23.310;2022-09-03T11:24:42;94178.16;;;21.54;73.01
28911;BME280;16028;42.642;23.310;2022-09-03T11:27:21;94176.06;;;21.69;74.49
28911;BME280;16028;42.642;23.310;2022-09-03T11:29:58;94175.16;;;21.88;68.57
28911;BME280;16028;42.642;23.310;2022-09-03T11:32:35;94179.31;;;21.71;69.57
28911;BME280;16028;42.642;23.310;2022-09-03T11:35:13;94168.94;;;21.70;69.62
28911;BME280;16028;42.642;23.310;2022-09-03T11:37:49;94173.84;;;21.66;69.71
28911;BME280;16028;42.642;23.310;2022-09-03T11:40:19;94170.56;;;21.71;68.51
28911;BME280;16028;42.642;23.310;2022-09-03T11:43:05;94168.34;;;21.61;75.39
28911;BME280;16028;42.642;23.310;2022-09-03T11:45:36;94171.50;;;21.83;70.77
28911;BME280;16028;42.642;23.310;2022-09-03T11:48:19;94165.28;;;22.08;68.14
28911;BME280;16028;42.642;23.310;2022-09-03T11:51:00;94174.84;;;22.09;67.25
28911;BME280;16028;42.642;23.310;2022-09-03T11:53:32;94171.63;;;22.07;68.13
28911;BME280;16028;42.642;23.310;2022-09-03T11:56:11;94170.41;;;22.03;68.12
28911;BME280;16028;42.642;23.310;2022-09-03T11:58:42;94167.81;;;21.97;67.94
28911;BME280;16028;42.642;23.310;2022-09-03T12:01:10;94171.50;;;21.89;69.56
28911;BME280;16028;42.642;23.310;2022-09-03T12:03:46;94175.94;;;21.95;69.13
28911;BME280;16028;42.642;23.310;2022-09-03T12:09:25;94161.75;;;22.14;69.12
28911;BME280;16028;42.642;23.310;2022-09-03T12:12:04;94159.28;;;22.20;68.13
28911;BME280;16028;42.642;23.310;2022-09-03T12:14:41;94160.28;;;22.50;70.42
28911;BME280;16028;42.642;23.310;2022-09-03T12:17:20;94162.16;;;22.74;66.87
28911;BME280;16028;42.642;23.310;2022-09-03T12:19:52;94157.59;;;22.81;64.69
28911;BME280;16028;42.642;23.310;2022-09-03T12:22:21;94154.34;;;22.79;63.59
28911;BME280;16028;42.642;23.310;2022-09-03T12:24:49;94143.22;;;22.71;63.55
28911;BME280;16028;42.642;23.310;2022-09-03T12:30:13;94150.72;;;22.49;67.44
28911;BME280;16028;42.642;23.310;2022-09-03T12:32:41;94154.84;;;22.70;62.47
28911;BME280;16028;42.642;23.310;2022-09-03T12:35:12;94152.44;;;22.61;62.96
28911;BME280;16028;42.642;23.310;2022-09-03T12:37:41;94151.75;;;22.48;63.12
28911;BME280;16028;42.642;23.310;2022-09-03T12:40:20;94152.94;;;22.52;65.93
28911;BME280;16028;42.642;23.310;2022-09-03T12:42:47;94150.22;;;22.58;65.59
28911;BME280;16028;42.642;23.310;2022-09-03T12:45:18;94152.13;;;22.51;65.21
28911;BME280;16028;42.642;23.310;2022-09-03T12:47:45;94144.81;;;22.47;65.32
28911;BME280;16028;42.642;23.310;2022-09-03T12:50:15;94145.47;;;22.42;65.24
28911;BME280;16028;42.642;23.310;2022-09-03T12:52:47;94144.81;;;22.47;69.32
28911;BME280;16028;42.642;23.310;2022-09-03T12:55:38;94141.19;;;22.66;66.55
28911;BME280;16028;42.642;23.310;2022-09-03T12:58:11;94137.09;;;22.70;64.94
28911;BME280;16028;42.642;23.310;2022-09-03T13:00:42;94136.81;;;22.78;63.80
28911;BME280;16028;42.642;23.310;2022-09-03T13:03:16;94136.09;;;22.64;64.73
28911;BME280;16028;42.642;23.310;2022-09-03T13:05:48;94139.19;;;22.61;63.67
28911;BME280;16028;42.642;23.310;2022-09-03T13:08:20;94132.63;;;22.64;64.11
28911;BME280;16028;42.642;23.310;2022-09-03T13:10:51;94129.22;;;22.57;64.82
28911;BME280;16028;42.642;23.310;2022-09-03T13:13:22;94136.47;;;22.43;65.79
28911;BME280;16028;42.642;23.310;2022-09-03T13:16:02;94131.16;;;22.43;65.55
28911;BME280;16028;42.642;23.310;2022-09-03T13:18:37;94125.38;;;22.53;67.47
28911;BME280;16028;42.642;23.310;2022-09-03T13:21:14;94125.09;;;22.61;64.48